Time;durP1;ratioP1;P1;durP2;ratioP2;P2;SDS_P1;SDS_P2;PMS_P1;PMS_P2;Temp;Humidity;BMP_temperature;BMP_pressure;BME280_temperature;BME280_humidity;BME280_pressure;Samples;Min_cycle;Max_cycle;Signal;HPM_P1;HPM_P2
2023/03/10 00:01:48;;;;;;;11.20;1.98;;;;;;;;;;4988100;28;20049;-75
2023/03/10 00:04:14;;;;;;;4.13;2.50;;;;;;;;;;4987195;28;20481;-76
2023/03/10 00:06:40;;;;;;;4.40;2.25;;;;;;;;;;4988717;28;20121;-76
2023/03/10 00:09:07;;;;;;;3.20;2.10;;;;;;;;;;4989996;28;20478;-76
2023/03/10 00:11:33;;;;;;;7.15;2.55;;;;;;;;;;4985619;28;20501;-76
2023/03/10 00:13:59;;;;;;;3.90;2.20;;;;;;;;;;4988228;28;20034;-76
2023/03/10 00:16:26;;;;;;;2.47;2.28;;;;;;;;;;4987970;28;20030;-76
2023/03/10 00:18:52;;;;;;;4.18;2.35;;;;;;;;;;4987927;28;20385;-76
2023/03/10 00:21:20;;;;;;;3.80;2.17;;;;;;;;;;4994826;28;20022;-76
2023/03/10 00:23:46;;;;;;;3.13;2.15;;;;;;;;;;4985609;28;20425;-76
2023/03/10 00:26:13;;;;;;;2.38;1.83;;;;;;;;;;4987724;28;20034;-76
2023/03/10 00:28:39;;;;;;;3.97;1.90;;;;;;;;;;4986900;28;20038;-76
2023/03/10 00:31:06;;;;;;;4.20;2.40;;;;;;;;;;4986339;28;20113;-75
2023/03/10 00:33:33;;;;;;;4.55;2.40;;;;;;;;;;4966884;28;20050;-76
2023/03/10 00:36:04;;;;;;;3.30;1.88;;;;;;;;;;4988071;28;20081;-76
2023/03/10 00:38:30;;;;;;;2.47;1.85;;;;;;;;;;4991465;28;20405;-76
2023/03/10 00:41:03;;;;;;;1.88;1.55;;;;;;;;;;4987768;28;20027;-76
2023/03/10 00:43:30;;;;;;;3.03;1.58;;;;;;;;;;4986732;28;20056;-76
2023/03/10 00:45:56;;;;;;;4.72;2.13;;;;;;;;;;4986005;28;20378;-75
2023/03/10 00:48:22;;;;;;;3.63;2.10;;;;;;;;;;4986851;28;20031;-75
2023/03/10 00:50:48;;;;;;;3.45;2.20;;;;;;;;;;4988059;28;20493;-75
2023/03/10 00:53:14;;;;;;;2.70;2.00;;;;;;;;;;4984879;28;20040;-75
2023/03/10 00:55:40;;;;;;;6.10;1.95;;;;;;;;;;4983706;28;20038;-75
2023/03/10 00:58:06;;;;;;;2.72;1.90;;;;;;;;;;4983548;28;20039;-75
2023/03/10 01:00:32;;;;;;;3.70;2.00;;;;;;;;;;4985684;28;20524;-75
2023/03/10 01:02:59;;;;;;;5.72;2.33;;;;;;;;;;4984844;28;20023;-75
2023/03/10 01:05:27;;;;;;;4.43;2.00;;;;;;;;;;4985340;28;20026;-75
2023/03/10 01:07:53;;;;;;;3.70;2.05;;;;;;;;;;4985230;28;20025;-75
2023/03/10 01:10:19;;;;;;;3.33;2.10;;;;;;;;;;4988925;28;20233;-75
2023/03/10 01:12:45;;;;;;;6.03;2.13;;;;;;;;;;4985409;28;20027;-75
2023/03/10 01:15:11;;;;;;;3.95;1.95;;;;;;;;;;4983949;28;20480;-75
2023/03/10 01:17:37;;;;;;;3.40;1.98;;;;;;;;;;4985165;28;20034;-75
2023/03/10 01:20:07;;;;;;;4.40;2.75;;;;;;;;;;4986122;28;20045;-75
2023/03/10 01:22:33;;;;;;;3.25;1.95;;;;;;;;;;4986275;28;20038;-75
2023/03/10 01:24:59;;;;;;;3.13;1.90;;;;;;;;;;4983448;28;20084;-75
2023/03/10 01:27:25;;;;;;;4.10;2.47;;;;;;;;;;4982996;28;20025;-75
2023/03/10 01:29:50;;;;;;;2.25;1.70;;;;;;;;;;4984744;28;20061;-76
2023/03/10 01:32:16;;;;;;;6.03;2.22;;;;;;;;;;4985967;28;20489;-75
2023/03/10 01:34:42;;;;;;;4.25;2.67;;;;;;;;;;4982186;28;20600;-75
2023/03/10 01:37:08;;;;;;;6.47;2.40;;;;;;;;;;4982552;28;20080;-76
2023/03/10 01:39:34;;;;;;;4.05;2.28;;;;;;;;;;4986873;28;20066;-75
2023/03/10 01:42:00;;;;;;;2.95;2.10;;;;;;;;;;4985871;28;20026;-75
2023/03/10 01:44:26;;;;;;;4.57;2.30;;;;;;;;;;4987225;28;20018;-75
2023/03/10 01:46:57;;;;;;;2.72;2.10;;;;;;;;;;4982391;28;20037;-75
2023/03/10 01:49:23;;;;;;;;;;;;;;;;;;4985742;28;20026;-75
2023/03/10 01:52:01;;;;;;;3.20;1.88;;;;;;;;;;4985078;28;20000;-75
2023/03/10 01:54:30;;;;;;;5.47;2.38;;;;;;;;;;4987500;28;20084;-76
2023/03/10 01:56:57;;;;;;;3.17;1.73;;;;;;;;;;4982936;28;20039;-75
2023/03/10 01:59:23;;;;;;;5.38;1.80;;;;;;;;;;4983801;28;20030;-75
2023/03/10 02:01:50;;;;;;;4.47;2.55;;;;;;;;;;4986745;28;20034;-75
2023/03/10 02:04:28;;;;;;;4.93;2.15;;;;;;;;;;4982960;28;20026;-75
2023/03/10 02:06:55;;;;;;;3.20;2.22;;;;;;;;;;4985407;28;20490;-75
2023/03/10 02:09:21;;;;;;;3.63;2.25;;;;;;;;;;4981941;28;20418;-76
2023/03/10 02:11:47;;;;;;;2.55;1.80;;;;;;;;;;4986616;28;20030;-75
2023/03/10 02:14:14;;;;;;;4.25;1.75;;;;;;;;;;4986141;28;20461;-75
2023/03/10 02:16:40;;;;;;;5.82;1.92;;;;;;;;;;4986131;28;20031;-75
2023/03/10 02:19:11;;;;;;;2.10;1.83;;;;;;;;;;4985118;28;20601;-75
2023/03/10 02:21:46;;;;;;;2.88;1.70;;;;;;;;;;4985620;28;20038;-75
2023/03/10 02:24:12;;;;;;;1.83;1.60;;;;;;;;;;4983221;28;20049;-75
2023/03/10 02:26:57;;;;;;;4.00;1.88;;;;;;;;;;4985572;28;20588;-75
2023/03/10 02:29:43;;;;;;;2.70;1.92;;;;;;;;;;4986103;28;20076;-76
2023/03/10 02:32:12;;;;;;;3.00;1.77;;;;;;;;;;4984006;28;20045;-76
2023/03/10 02:34:38;;;;;;;3.55;2.28;;;;;;;;;;4982196;28;20058;-76
2023/03/10 02:37:04;;;;;;;5.22;1.77;;;;;;;;;;4986686;28;20034;-76
2023/03/10 02:39:30;;;;;;;2.65;1.85;;;;;;;;;;4983875;28;20034;-76
2023/03/10 02:41:56;;;;;;;3.85;2.33;;;;;;;;;;4983346;28;20110;-76
2023/03/10 02:44:24;;;;;;;3.40;1.92;;;;;;;;;;4984213;28;20054;-75
2023/03/10 02:46:50;;;;;;;3.47;1.90;;;;;;;;;;4984308;28;20030;-76
2023/03/10 02:49:18;;;;;;;2.30;1.70;;;;;;;;;;4985352;28;20037;-76
2023/03/10 02:51:45;;;;;;;2.72;1.90;;;;;;;;;;4984420;28;20031;-76
2023/03/10 02:54:12;;;;;;;2.63;1.65;;;;;;;;;;4982707;28;20022;-75
2023/03/10 02:56:39;;;;;;;3.50;1.90;;;;;;;;;;4984939;28;20022;-75
2023/03/10 02:59:06;;;;;;;3.83;1.60;;;;;;;;;;4987579;28;20057;-75
2023/03/10 03:01:32;;;;;;;3.05;2.10;;;;;;;;;;4989927;28;20432;-76
2023/03/10 03:03:59;;;;;;;2.08;1.45;;;;;;;;;;4988791;28;20105;-75
2023/03/10 03:06:25;;;;;;;4.70;1.75;;;;;;;;;;4987796;28;20026;-76
2023/03/10 03:08:51;;;;;;;2.55;1.60;;;;;;;;;;4990027;28;20038;-75
2023/03/10 03:11:17;;;;;;;3.53;1.77;;;;;;;;;;4987753;28;20183;-75
2023/03/10 03:13:43;;;;;;;2.45;1.73;;;;;;;;;;4982960;28;20057;-75
2023/03/10 03:16:09;;;;;;;2.55;1.45;;;;;;;;;;4990135;28;20041;-76
2023/03/10 03:18:36;;;;;;;3.00;1.70;;;;;;;;;;4988950;28;20038;-76
2023/03/10 03:21:06;;;;;;;1.90;1.60;;;;;;;;;;4987446;28;20042;-75
2023/03/10 03:23:33;;;;;;;2.63;1.77;;;;;;;;;;4989434;28;20033;-76
2023/03/10 03:25:58;;;;;;;2.55;1.88;;;;;;;;;;4988699;28;20489;-76
2023/03/10 03:28:24;;;;;;;4.40;1.70;;;;;;;;;;4987855;28;20619;-79
2023/03/10 03:30:50;;;;;;;2.50;1.60;;;;;;;;;;4989654;28;20069;-76
2023/03/10 03:33:16;;;;;;;3.28;1.33;;;;;;;;;;4987960;28;20033;-75
2023/03/10 03:35:43;;;;;;;3.72;2.05;;;;;;;;;;4989333;28;20037;-76
2023/03/10 03:38:09;;;;;;;2.28;1.67;;;;;;;;;;4987210;28;20026;-76
2023/03/10 03:40:36;;;;;;;5.25;2.10;;;;;;;;;;4986900;28;20382;-76
2023/03/10 03:43:02;;;;;;;2.70;1.30;;;;;;;;;;4989086;28;20030;-76
2023/03/10 03:45:30;;;;;;;2.30;1.52;;;;;;;;;;4989432;28;20066;-75
2023/03/10 03:47:57;;;;;;;4.32;1.80;;;;;;;;;;4987364;28;20105;-76
2023/03/10 03:50:26;;;;;;;2.10;1.55;;;;;;;;;;4986652;28;20034;-75
2023/03/10 03:52:52;;;;;;;3.00;1.60;;;;;;;;;;4989110;28;20030;-75
2023/03/10 03:55:18;;;;;;;2.20;1.67;;;;;;;;;;4987729;28;20408;-75
2023/03/10 03:57:45;;;;;;;2.28;1.70;;;;;;;;;;4985302;28;20088;-75
2023/03/10 04:00:13;;;;;;;2.15;1.70;;;;;;;;;;4986284;28;20398;-76
2023/03/10 04:02:39;;;;;;;2.85;1.30;;;;;;;;;;4987028;28;20031;-76
2023/03/10 04:05:06;;;;;;;2.13;1.77;;;;;;;;;;4987933;28;20027;-76
2023/03/10 04:07:32;;;;;;;3.00;1.60;;;;;;;;;;4985221;28;20447;-76
2023/03/10 04:09:58;;;;;;;1.65;1.40;;;;;;;;;;4988201;28;20050;-76
2023/03/10 04:12:26;;;;;;;2.95;1.85;;;;;;;;;;4988505;28;20547;-76
2023/03/10 04:14:52;;;;;;;1.52;1.27;;;;;;;;;;4988178;28;20049;-76
2023/03/10 04:17:18;;;;;;;4.32;1.58;;;;;;;;;;4986796;28;20489;-76
2023/03/10 04:19:44;;;;;;;1.90;1.60;;;;;;;;;;4986399;28;20037;-76
2023/03/10 04:22:10;;;;;;;1.63;1.20;;;;;;;;;;4989020;28;20022;-76
2023/03/10 04:24:39;;;;;;;2.20;1.00;;;;;;;;;;4985463;28;20040;-75
2023/03/10 04:27:08;;;;;;;2.38;1.90;;;;;;;;;;4983281;28;20029;-76
2023/03/10 04:29:34;;;;;;;2.67;1.27;;;;;;;;;;4987732;28;20049;-76
2023/03/10 04:32:00;;;;;;;1.85;1.58;;;;;;;;;;4988340;28;20058;-76
2023/03/10 04:34:26;;;;;;;2.42;1.50;;;;;;;;;;4984311;28;20035;-77
2023/03/10 04:36:52;;;;;;;3.67;2.05;;;;;;;;;;4986376;28;20030;-76
2023/03/10 04:39:18;;;;;;;1.75;1.25;;;;;;;;;;4986673;28;20485;-76
2023/03/10 04:41:43;;;;;;;5.55;1.48;;;;;;;;;;4986351;28;20193;-76
2023/03/10 04:44:10;;;;;;;2.10;1.35;;;;;;;;;;4986918;28;20054;-76
2023/03/10 04:46:36;;;;;;;1.38;1.08;;;;;;;;;;4988225;28;20031;-76
2023/03/10 04:49:03;;;;;;;1.58;1.40;;;;;;;;;;4986840;28;20505;-76
2023/03/10 04:51:29;;;;;;;2.05;1.20;;;;;;;;;;4987235;28;20030;-76
2023/03/10 04:53:56;;;;;;;2.35;1.30;;;;;;;;;;4985937;28;20533;-75
2023/03/10 04:56:22;;;;;;;1.38;1.02;;;;;;;;;;4985141;28;20101;-76
2023/03/10 04:58:49;;;;;;;1.23;1.13;;;;;;;;;;4984799;28;20125;-76
2023/03/10 05:01:15;;;;;;;3.88;1.60;;;;;;;;;;4984214;28;20121;-76
2023/03/10 05:03:44;;;;;;;2.05;1.30;;;;;;;;;;4984612;28;20018;-75
2023/03/10 05:06:11;;;;;;;1.55;1.00;;;;;;;;;;4985128;28;20076;-75
2023/03/10 05:08:37;;;;;;;2.38;1.25;;;;;;;;;;4985710;28;20402;-75
2023/03/10 05:11:06;;;;;;;2.00;1.30;;;;;;;;;;4987288;28;20038;-76
2023/03/10 05:13:32;;;;;;;1.60;1.30;;;;;;;;;;4987001;28;20042;-76
2023/03/10 05:15:58;;;;;;;2.28;1.52;;;;;;;;;;4986517;28;20401;-76
2023/03/10 05:18:24;;;;;;;1.17;1.00;;;;;;;;;;4987385;28;20022;-76
2023/03/10 05:20:54;;;;;;;2.33;1.23;;;;;;;;;;4987301;28;20027;-75
2023/03/10 05:23:20;;;;;;;1.70;1.27;;;;;;;;;;4976937;28;20695;-76
2023/03/10 05:25:46;;;;;;;2.17;1.70;;;;;;;;;;4986983;28;20053;-76
2023/03/10 05:28:12;;;;;;;1.20;1.00;;;;;;;;;;4983898;28;20072;-76
2023/03/10 05:30:38;;;;;;;2.47;1.33;;;;;;;;;;4985791;28;20043;-76
2023/03/10 05:33:04;;;;;;;1.10;1.00;;;;;;;;;;4987193;28;20026;-76
2023/03/10 05:35:33;;;;;;;1.83;1.10;;;;;;;;;;4988787;28;20023;-76
2023/03/10 05:37:59;;;;;;;1.60;1.10;;;;;;;;;;4985687;28;20487;-76
2023/03/10 05:40:26;;;;;;;1.70;1.20;;;;;;;;;;4987671;28;20061;-76
2023/03/10 05:42:51;;;;;;;1.40;1.13;;;;;;;;;;4986437;28;20030;-76
2023/03/10 05:45:17;;;;;;;1.90;1.50;;;;;;;;;;4987620;28;20015;-76
2023/03/10 05:47:47;;;;;;;1.92;1.05;;;;;;;;;;4984850;28;20022;-76
2023/03/10 05:50:13;;;;;;;3.15;1.20;;;;;;;;;;4988709;28;20030;-76
2023/03/10 05:52:40;;;;;;;2.13;1.50;;;;;;;;;;4986061;28;20041;-76
2023/03/10 05:55:07;;;;;;;2.42;1.48;;;;;;;;;;4985017;28;20252;-76
2023/03/10 05:57:33;;;;;;;1.88;1.20;;;;;;;;;;4985608;28;20347;-76
2023/03/10 05:59:59;;;;;;;1.88;0.95;;;;;;;;;;4984732;28;20496;-76
2023/03/10 06:02:25;;;;;;;1.48;0.95;;;;;;;;;;4985428;28;20045;-76
2023/03/10 06:04:51;;;;;;;0.95;0.85;;;;;;;;;;4986219;28;20409;-76
2023/03/10 06:07:17;;;;;;;2.50;1.05;;;;;;;;;;4985729;28;20045;-76
2023/03/10 06:09:43;;;;;;;1.42;1.00;;;;;;;;;;4982164;28;20042;-75
2023/03/10 06:12:09;;;;;;;2.40;1.20;;;;;;;;;;4984200;28;20345;-75
2023/03/10 06:14:37;;;;;;;1.92;1.40;;;;;;;;;;4986846;28;20543;-75
2023/03/10 06:17:02;;;;;;;2.17;1.30;;;;;;;;;;4983360;28;20018;-76
2023/03/10 06:19:28;;;;;;;1.10;1.00;;;;;;;;;;4986466;28;20481;-76
2023/03/10 06:21:54;;;;;;;1.00;0.90;;;;;;;;;;4985848;28;20049;-75
2023/03/10 06:24:21;;;;;;;1.30;1.08;;;;;;;;;;4987229;28;20452;-76
2023/03/10 06:26:46;;;;;;;0.80;0.80;;;;;;;;;;4984998;28;20088;-75
2023/03/10 06:29:12;;;;;;;2.13;1.08;;;;;;;;;;4987036;28;20493;-75
2023/03/10 06:31:38;;;;;;;2.33;1.30;;;;;;;;;;4978702;28;20489;-75
2023/03/10 06:34:04;;;;;;;1.65;1.13;;;;;;;;;;4985873;28;20030;-76
2023/03/10 06:36:31;;;;;;;1.52;1.10;;;;;;;;;;4989098;28;20088;-76
2023/03/10 06:38:57;;;;;;;1.67;0.90;;;;;;;;;;4985019;28;20034;-82
2023/03/10 06:41:24;;;;;;;1.80;1.40;;;;;;;;;;4989253;28;20028;-73
2023/03/10 06:43:50;;;;;;;2.35;1.42;;;;;;;;;;4987667;28;20022;-75
2023/03/10 06:46:16;;;;;;;1.83;1.20;;;;;;;;;;4980576;28;20929;-75
2023/03/10 06:48:42;;;;;;;1.65;1.20;;;;;;;;;;4981250;28;20113;-75
2023/03/10 06:51:09;;;;;;;1.13;1.02;;;;;;;;;;4987938;28;20030;-75
2023/03/10 06:53:35;;;;;;;2.10;1.00;;;;;;;;;;4987722;28;20026;-75
2023/03/10 06:56:12;;;;;;;2.22;1.13;;;;;;;;;;4988928;28;20030;-75
2023/03/10 06:58:38;;;;;;;1.45;1.00;;;;;;;;;;4986370;28;20022;-75
2023/03/10 07:01:05;;;;;;;2.22;1.20;;;;;;;;;;4987889;28;20022;-76
2023/03/10 07:03:30;;;;;;;9.90;1.98;;;;;;;;;;4987324;28;20030;-75
2023/03/10 07:05:58;;;;;;;3.97;1.20;;;;;;;;;;4985391;28;20093;-75
2023/03/10 07:08:24;;;;;;;1.98;1.20;;;;;;;;;;4988502;28;20041;-76
2023/03/10 07:10:50;;;;;;;1.77;1.20;;;;;;;;;;4983393;28;20058;-76
2023/03/10 07:13:16;;;;;;;1.55;0.98;;;;;;;;;;4986362;28;20478;-76
2023/03/10 07:15:42;;;;;;;7.90;1.20;;;;;;;;;;4990098;28;20040;-75
2023/03/10 07:18:08;;;;;;;1.23;0.95;;;;;;;;;;4980930;28;20093;-75
2023/03/10 07:20:34;;;;;;;2.38;1.27;;;;;;;;;;4987225;28;20027;-75
2023/03/10 07:23:00;;;;;;;2.85;1.60;;;;;;;;;;4989327;28;20053;-77
2023/03/10 07:25:26;;;;;;;5.80;1.63;;;;;;;;;;4990294;28;20023;-74
2023/03/10 07:27:52;;;;;;;6.75;1.30;;;;;;;;;;4988869;28;20469;-75
2023/03/10 07:30:18;;;;;;;2.70;1.38;;;;;;;;;;4989584;28;20252;-75
2023/03/10 07:32:44;;;;;;;1.48;1.38;;;;;;;;;;4990033;28;20040;-74
2023/03/10 07:35:10;;;;;;;1.58;1.30;;;;;;;;;;4992348;28;20023;-78
2023/03/10 07:37:37;;;;;;;2.47;1.40;;;;;;;;;;4990825;28;20379;-79
2023/03/10 07:40:04;;;;;;;2.70;1.40;;;;;;;;;;4987202;28;20470;-78
2023/03/10 07:42:30;;;;;;;3.30;1.10;;;;;;;;;;4986137;28;20081;-78
2023/03/10 07:44:56;;;;;;;1.58;1.10;;;;;;;;;;4988263;28;20615;-79
2023/03/10 07:47:21;;;;;;;3.88;1.67;;;;;;;;;;4990511;28;20018;-78
2023/03/10 07:49:48;;;;;;;2.75;1.60;;;;;;;;;;4986083;28;20038;-78
2023/03/10 07:52:14;;;;;;;3.15;1.85;;;;;;;;;;4997316;28;20022;-77
2023/03/10 07:54:40;;;;;;;2.47;1.90;;;;;;;;;;4986737;28;20035;-73
2023/03/10 07:57:07;;;;;;;1.92;1.55;;;;;;;;;;4989037;28;20518;-76
2023/03/10 07:59:36;;;;;;;2.70;1.70;;;;;;;;;;4984816;28;20434;-75
2023/03/10 08:02:02;;;;;;;3.60;1.80;;;;;;;;;;4989545;28;20092;-73
2023/03/10 08:04:28;;;;;;;2.45;1.02;;;;;;;;;;4990356;28;20105;-78
2023/03/10 08:06:54;;;;;;;2.70;1.73;;;;;;;;;;4984849;28;20548;-78
2023/03/10 08:09:22;;;;;;;1.77;1.33;;;;;;;;;;4987777;28;20018;-80
2023/03/10 08:11:48;;;;;;;4.40;1.48;;;;;;;;;;4988040;28;20045;-79
2023/03/10 08:14:17;;;;;;;5.13;1.17;;;;;;;;;;4990549;28;20033;-77
2023/03/10 08:16:43;;;;;;;4.65;1.70;;;;;;;;;;4989115;28;20030;-78
2023/03/10 08:19:12;;;;;;;2.55;1.40;;;;;;;;;;4988025;28;20038;-75
2023/03/10 08:21:38;;;;;;;1.75;1.23;;;;;;;;;;4987038;28;20130;-77
2023/03/10 08:24:04;;;;;;;2.17;1.13;;;;;;;;;;4987238;28;20026;-78
2023/03/10 08:26:30;;;;;;;2.38;1.55;;;;;;;;;;4987447;28;20023;-78
2023/03/10 08:28:56;;;;;;;4.93;1.75;;;;;;;;;;4988849;28;20030;-77
2023/03/10 08:31:22;;;;;;;2.88;1.40;;;;;;;;;;4986523;28;20027;-78
2023/03/10 08:33:49;;;;;;;2.67;1.52;;;;;;;;;;4988852;28;20034;-76
2023/03/10 08:36:16;;;;;;;2.83;1.23;;;;;;;;;;4987542;28;20026;-75
2023/03/10 08:38:43;;;;;;;2.75;1.35;;;;;;;;;;4978512;28;20038;-77
2023/03/10 08:41:10;;;;;;;3.42;1.60;;;;;;;;;;4985953;28;20125;-75
2023/03/10 08:43:36;;;;;;;3.67;1.30;;;;;;;;;;4987713;28;20053;-78
2023/03/10 08:46:02;;;;;;;2.17;1.40;;;;;;;;;;4989192;28;20038;-76
2023/03/10 08:48:28;;;;;;;2.63;1.50;;;;;;;;;;4988543;28;20121;-76
2023/03/10 08:50:54;;;;;;;3.20;1.90;;;;;;;;;;4988248;28;20476;-76
2023/03/10 08:53:20;;;;;;;2.30;1.40;;;;;;;;;;4999365;28;20050;-77
2023/03/10 08:55:47;;;;;;;4.45;1.73;;;;;;;;;;4984780;28;20038;-78
2023/03/10 08:58:13;;;;;;;3.05;1.60;;;;;;;;;;4988316;28;20030;-77
2023/03/10 09:00:39;;;;;;;1.55;1.27;;;;;;;;;;4988154;28;20030;-79
2023/03/10 09:03:05;;;;;;;2.88;1.92;;;;;;;;;;4989043;28;20034;-79
2023/03/10 09:05:31;;;;;;;3.53;1.52;;;;;;;;;;4989424;28;20019;-78
2023/03/10 09:07:57;;;;;;;2.97;1.50;;;;;;;;;;4986757;28;20026;-78
2023/03/10 09:10:23;;;;;;;2.72;1.48;;;;;;;;;;4988867;28;20378;-78
2023/03/10 09:12:49;;;;;;;1.70;1.48;;;;;;;;;;4984438;28;20037;-78
2023/03/10 09:15:15;;;;;;;4.13;1.73;;;;;;;;;;4989352;28;20030;-78
2023/03/10 09:17:41;;;;;;;2.95;1.42;;;;;;;;;;4988957;28;20026;-78
2023/03/10 09:20:08;;;;;;;2.42;1.58;;;;;;;;;;4986597;28;20025;-78
2023/03/10 09:22:34;;;;;;;3.00;1.70;;;;;;;;;;4993734;28;20065;-82
2023/03/10 09:25:02;;;;;;;1.77;1.50;;;;;;;;;;4999857;28;20489;-83
2023/03/10 09:27:28;;;;;;;2.97;1.65;;;;;;;;;;4988008;28;20050;-77
2023/03/10 09:29:57;;;;;;;2.00;1.20;;;;;;;;;;4992342;28;20033;-80
2023/03/10 09:32:23;;;;;;;3.17;1.20;;;;;;;;;;4991923;28;20026;-76
2023/03/10 09:34:49;;;;;;;1.63;1.30;;;;;;;;;;4987342;28;20035;-77
2023/03/10 09:37:15;;;;;;;1.92;1.45;;;;;;;;;;4986950;28;20029;-76
2023/03/10 09:39:41;;;;;;;2.00;1.70;;;;;;;;;;4995805;28;20701;-77
2023/03/10 09:42:26;;;;;;;4.50;1.80;;;;;;;;;;4986713;28;20109;-77
2023/03/10 09:45:02;;;;;;;2.55;1.52;;;;;;;;;;4998484;28;20121;-78
2023/03/10 09:47:55;;;;;;;4.15;1.90;;;;;;;;;;4986134;28;20544;-78
2023/03/10 09:50:34;;;;;;;4.22;1.65;;;;;;;;;;4977807;28;20486;-78
2023/03/10 09:53:25;;;;;;;3.03;1.70;;;;;;;;;;4997663;28;20030;-77
2023/03/10 09:55:52;;;;;;;2.03;1.70;;;;;;;;;;4997161;28;20041;-77
2023/03/10 09:58:25;;;;;;;2.30;1.45;;;;;;;;;;4986892;28;20481;-77
2023/03/10 10:00:51;;;;;;;2.25;1.70;;;;;;;;;;4983920;28;20030;-77
2023/03/10 10:03:19;;;;;;;2.63;1.80;;;;;;;;;;4987506;28;20385;-77
2023/03/10 10:05:46;;;;;;;5.78;1.80;;;;;;;;;;4987306;28;20041;-76
2023/03/10 10:08:27;;;;;;;3.00;1.77;;;;;;;;;;4988575;28;20026;-76
2023/03/10 10:10:54;;;;;;;2.10;1.50;;;;;;;;;;4983094;28;20049;-76
2023/03/10 10:13:22;;;;;;;3.40;1.83;;;;;;;;;;5002870;28;20034;-76
2023/03/10 10:15:50;;;;;;;2.95;2.08;;;;;;;;;;4980409;28;20023;-76
2023/03/10 10:18:25;;;;;;;2.88;1.70;;;;;;;;;;4984138;28;20456;-76
2023/03/10 10:20:59;;;;;;;2.88;1.88;;;;;;;;;;4985889;28;20421;-76
2023/03/10 10:23:36;;;;;;;4.15;1.60;;;;;;;;;;4987343;28;20023;-77
2023/03/10 10:26:13;;;;;;;2.88;1.98;;;;;;;;;;4987665;28;20023;-76
2023/03/10 10:28:41;;;;;;;4.15;1.30;;;;;;;;;;4987705;28;20113;-76
2023/03/10 10:31:19;;;;;;;4.68;1.45;;;;;;;;;;4986771;28;20046;-76
2023/03/10 10:33:57;;;;;;;2.92;1.52;;;;;;;;;;4987669;28;20026;-77
2023/03/10 10:36:24;;;;;;;2.72;1.55;;;;;;;;;;4987999;28;20033;-76
2023/03/10 10:38:51;;;;;;;2.70;1.60;;;;;;;;;;4987926;28;20085;-76
2023/03/10 10:41:21;;;;;;;1.88;1.30;;;;;;;;;;4985999;28;20022;-76
2023/03/10 10:43:47;;;;;;;2.10;1.35;;;;;;;;;;4985892;28;20034;-76
2023/03/10 10:46:14;;;;;;;1.88;1.67;;;;;;;;;;4987711;28;20034;-75
2023/03/10 10:48:49;;;;;;;2.25;1.52;;;;;;;;;;4987807;28;20034;-76
2023/03/10 10:51:26;;;;;;;2.50;1.48;;;;;;;;;;4986693;28;20968;-76
2023/03/10 10:53:53;;;;;;;2.60;1.40;;;;;;;;;;4985356;28;20038;-76
2023/03/10 10:56:19;;;;;;;3.10;1.25;;;;;;;;;;4988119;28;20088;-77
2023/03/10 10:59:00;;;;;;;1.88;1.23;;;;;;;;;;4987362;28;20022;-77
2023/03/10 11:01:26;;;;;;;2.35;1.35;;;;;;;;;;4985524;28;20018;-76
2023/03/10 11:04:06;;;;;;;2.15;1.52;;;;;;;;;;4987588;28;20022;-76
2023/03/10 11:06:36;;;;;;;2.13;1.40;;;;;;;;;;4984003;28;20401;-76
2023/03/10 11:09:04;;;;;;;3.13;1.35;;;;;;;;;;4985572;28;20725;-76
2023/03/10 11:11:49;;;;;;;1.88;1.45;;;;;;;;;;4986697;28;20062;-76
2023/03/10 11:14:29;;;;;;;1.92;1.40;;;;;;;;;;4986367;28;20389;-75
2023/03/10 11:17:04;;;;;;;1.60;1.40;;;;;;;;;;4981574;28;20036;-76
2023/03/10 11:19:33;;;;;;;2.08;1.40;;;;;;;;;;4989539;28;20121;-76
2023/03/10 11:22:03;;;;;;;2.50;1.40;;;;;;;;;;4991132;28;20033;-76
2023/03/10 11:24:52;;;;;;;2.67;1.95;;;;;;;;;;4990252;28;20030;-76
2023/03/10 11:27:29;;;;;;;3.22;1.38;;;;;;;;;;4977565;28;20031;-76
2023/03/10 11:30:03;;;;;;;2.03;1.55;;;;;;;;;;4990543;28;20065;-75
2023/03/10 11:32:45;;;;;;;3.33;1.80;;;;;;;;;;4972773;28;20030;-76
2023/03/10 11:35:35;;;;;;;2.35;1.88;;;;;;;;;;4990321;28;20478;-76
2023/03/10 11:38:05;;;;;;;3.80;1.67;;;;;;;;;;4984976;28;20074;-76
2023/03/10 11:40:39;;;;;;;3.60;1.70;;;;;;;;;;4986358;28;20026;-76
2023/03/10 11:43:16;;;;;;;3.08;1.75;;;;;;;;;;4989936;28;20025;-77
2023/03/10 11:45:51;;;;;;;2.67;1.58;;;;;;;;;;4990312;28;20019;-76
2023/03/10 11:48:26;;;;;;;2.33;1.55;;;;;;;;;;4989910;28;20730;-77
2023/03/10 11:50:53;;;;;;;2.05;1.40;;;;;;;;;;4987499;28;20026;-77
2023/03/10 11:53:41;;;;;;;2.20;1.38;;;;;;;;;;4990116;28;20026;-76
2023/03/10 11:56:08;;;;;;;2.42;1.48;;;;;;;;;;4990037;28;20027;-76
2023/03/10 11:58:49;;;;;;;2.58;1.52;;;;;;;;;;4989697;28;20492;-76
2023/03/10 12:01:18;;;;;;;1.67;1.05;;;;;;;;;;4986223;28;20018;-76
2023/03/10 12:03:50;;;;;;;2.13;1.35;;;;;;;;;;4987139;28;20382;-76
2023/03/10 12:06:34;;;;;;;2.08;1.15;;;;;;;;;;4988991;28;20026;-76
2023/03/10 12:09:01;;;;;;;2.13;1.38;;;;;;;;;;4989130;28;20049;-77
2023/03/10 12:11:28;;;;;;;1.85;1.20;;;;;;;;;;4987020;28;20054;-76
2023/03/10 12:13:57;;;;;;;1.80;1.42;;;;;;;;;;4989335;28;20152;-76
2023/03/10 12:16:25;;;;;;;1.83;1.20;;;;;;;;;;4984693;28;20011;-76
2023/03/10 12:18:52;;;;;;;2.13;1.50;;;;;;;;;;4986485;28;20042;-77
2023/03/10 12:21:20;;;;;;;2.50;1.17;;;;;;;;;;4988025;28;20042;-76
2023/03/10 12:23:48;;;;;;;2.22;1.42;;;;;;;;;;4989917;28;20023;-77
2023/03/10 12:26:14;;;;;;;6.57;1.50;;;;;;;;;;4990080;28;20045;-77
2023/03/10 12:28:40;;;;;;;2.85;1.58;;;;;;;;;;4981910;28;20084;-78
2023/03/10 12:31:06;;;;;;;4.82;1.30;;;;;;;;;;4989551;28;20113;-78
2023/03/10 12:33:33;;;;;;;1.90;1.20;;;;;;;;;;4972097;28;20038;-76
2023/03/10 12:36:08;;;;;;;2.55;1.38;;;;;;;;;;4989684;28;20049;-78
2023/03/10 12:38:44;;;;;;;1.85;1.38;;;;;;;;;;4983667;28;20042;-77
2023/03/10 12:41:11;;;;;;;3.95;1.58;;;;;;;;;;4987229;28;20015;-78
2023/03/10 12:43:43;;;;;;;2.85;1.20;;;;;;;;;;4987264;28;20041;-79
2023/03/10 12:46:12;;;;;;;2.08;1.13;;;;;;;;;;4988631;28;20398;-78
2023/03/10 12:48:41;;;;;;;2.22;1.50;;;;;;;;;;4987184;28;20113;-78
2023/03/10 12:51:17;;;;;;;1.75;1.10;;;;;;;;;;4986406;28;20022;-79
2023/03/10 12:53:54;;;;;;;1.63;1.10;;;;;;;;;;4989508;28;20030;-78
2023/03/10 12:56:22;;;;;;;2.72;1.15;;;;;;;;;;4971802;28;20508;-78
2023/03/10 12:59:01;;;;;;;1.50;1.08;;;;;;;;;;4988164;28;20081;-78
2023/03/10 13:01:30;;;;;;;3.30;1.27;;;;;;;;;;4983761;28;20481;-79
2023/03/10 13:03:56;;;;;;;2.47;1.30;;;;;;;;;;4985183;28;20470;-78
2023/03/10 13:06:24;;;;;;;2.38;1.45;;;;;;;;;;4989249;28;20054;-78
2023/03/10 13:08:51;;;;;;;1.40;1.00;;;;;;;;;;4989035;28;20034;-79
2023/03/10 13:11:17;;;;;;;2.13;1.08;;;;;;;;;;4986759;28;20046;-78
2023/03/10 13:13:47;;;;;;;1.70;1.20;;;;;;;;;;4988336;28;20375;-78
2023/03/10 13:16:17;;;;;;;1.48;0.93;;;;;;;;;;4985654;28;20918;-78
2023/03/10 13:18:50;;;;;;;1.50;1.00;;;;;;;;;;4979912;28;20034;-78
2023/03/10 13:21:23;;;;;;;1.65;1.05;;;;;;;;;;4987251;28;20279;-77
2023/03/10 13:23:49;;;;;;;3.03;1.05;;;;;;;;;;4988685;28;20037;-79
2023/03/10 13:26:16;;;;;;;2.95;1.13;;;;;;;;;;4988463;28;20049;-78
2023/03/10 13:28:59;;;;;;;1.42;1.00;;;;;;;;;;4986624;28;20173;-78
2023/03/10 13:31:31;;;;;;;1.85;1.27;;;;;;;;;;4976711;28;20073;-76
2023/03/10 13:33:58;;;;;;;2.95;1.20;;;;;;;;;;4985905;28;20030;-79
2023/03/10 13:36:32;;;;;;;2.80;1.27;;;;;;;;;;4988524;28;20044;-80
2023/03/10 13:38:58;;;;;;;1.85;1.33;;;;;;;;;;4988009;28;20030;-80
2023/03/10 13:41:28;;;;;;;1.90;1.10;;;;;;;;;;4986104;28;20117;-79
2023/03/10 13:43:55;;;;;;;2.67;1.42;;;;;;;;;;4987135;28;20406;-79
2023/03/10 13:46:31;;;;;;;1.30;1.20;;;;;;;;;;4988341;28;20038;-80
2023/03/10 13:49:02;;;;;;;2.90;1.02;;;;;;;;;;4974985;28;20030;-79
2023/03/10 13:51:48;;;;;;;1.17;0.90;;;;;;;;;;4986901;28;20500;-80
2023/03/10 13:54:19;;;;;;;0.68;0.68;;;;;;;;;;4984570;28;20038;-79
2023/03/10 13:56:46;;;;;;;1.67;1.00;;;;;;;;;;4987894;28;20031;-79
2023/03/10 13:59:16;;;;;;;2.63;1.15;;;;;;;;;;4987931;28;20031;-79
2023/03/10 14:01:45;;;;;;;1.80;1.05;;;;;;;;;;4986306;28;20031;-79
2023/03/10 14:04:15;;;;;;;1.05;0.90;;;;;;;;;;4983602;28;20719;-79
2023/03/10 14:06:41;;;;;;;1.70;1.30;;;;;;;;;;4985241;28;20783;-79
2023/03/10 14:09:21;;;;;;;2.15;1.05;;;;;;;;;;4988367;28;20023;-80
2023/03/10 14:11:49;;;;;;;1.58;0.82;;;;;;;;;;4988030;28;20452;-79
2023/03/10 14:14:26;;;;;;;2.75;1.30;;;;;;;;;;4987708;28;20556;-80
2023/03/10 14:16:53;;;;;;;1.98;1.13;;;;;;;;;;4986641;28;20493;-80
2023/03/10 14:19:41;;;;;;;3.55;0.90;;;;;;;;;;4986889;28;20042;-79
2023/03/10 14:22:27;;;;;;;1.05;0.90;;;;;;;;;;4988051;28;20121;-79
2023/03/10 14:24:53;;;;;;;1.40;1.02;;;;;;;;;;4984097;28;20022;-79
2023/03/10 14:27:20;;;;;;;6.57;1.20;;;;;;;;;;4987630;28;20088;-79
2023/03/10 14:29:48;;;;;;;1.38;0.90;;;;;;;;;;4986171;28;20110;-79
2023/03/10 14:32:15;;;;;;;1.02;0.90;;;;;;;;;;4987768;28;20042;-80
2023/03/10 14:34:41;;;;;;;1.40;1.00;;;;;;;;;;4986437;28;20125;-80
2023/03/10 14:37:07;;;;;;;1.58;1.30;;;;;;;;;;4986298;28;20019;-80
2023/03/10 14:39:33;;;;;;;1.48;1.17;;;;;;;;;;4988138;28;20165;-79
2023/03/10 14:42:00;;;;;;;2.30;0.95;;;;;;;;;;4984723;28;20042;-79
2023/03/10 14:44:26;;;;;;;1.83;1.25;;;;;;;;;;4985901;28;20034;-79
2023/03/10 14:46:55;;;;;;;1.20;0.85;;;;;;;;;;4981231;28;20033;-79
2023/03/10 14:49:25;;;;;;;1.90;0.82;;;;;;;;;;4987163;28;20474;-79
2023/03/10 14:51:51;;;;;;;1.83;1.08;;;;;;;;;;4987784;28;20026;-79